Time;durP1;ratioP1;P1;durP2;ratioP2;P2;SDS_P1;SDS_P2;PMS_P1;PMS_P2;Temp;Humidity;BMP_temperature;BMP_pressure;BME280_temperature;BME280_humidity;BME280_pressure;Samples;Min_cycle;Max_cycle;Signal;HPM_P1;HPM_P2
2022/09/28 00:00:31;;;;;;;7.43;6.22;;;9.60;99.90;;;;;;4921900;29;20190;-87
2022/09/28 00:02:57;;;;;;;9.23;6.95;;;9.50;99.90;;;;;;4938918;29;20169;-86
2022/09/28 00:05:25;;;;;;;7.47;5.97;;;9.50;99.90;;;;;;4921676;29;20190;-86
2022/09/28 00:07:55;;;;;;;7.80;6.38;;;9.60;99.90;;;;;;4921837;29;20186;-86
2022/09/28 00:12:59;;;;;;;7.40;6.53;;;9.50;99.90;;;;;;4949195;23;20243;-90
2022/09/28 00:15:25;;;;;;;9.45;6.55;;;9.50;99.90;;;;;;4885011;29;20210;-90
2022/09/28 00:17:50;;;;;;;11.88;7.55;;;9.50;99.90;;;;;;4884625;29;20572;-89
2022/09/28 00:20:18;;;;;;;7.85;7.03;;;9.50;99.90;;;;;;4884766;29;20214;-89
2022/09/28 00:22:44;;;;;;;12.38;7.82;;;9.50;99.90;;;;;;4901292;29;20171;-90
2022/09/28 00:25:09;;;;;;;8.00;7.20;;;9.50;99.90;;;;;;4884197;29;20203;-89
2022/09/28 00:27:35;;;;;;;10.23;8.15;;;9.50;99.90;;;;;;4884604;29;20219;-89
2022/09/28 00:30:01;;;;;;;9.07;8.18;;;9.50;99.90;;;;;;4899851;29;20610;-89
2022/09/28 00:32:28;;;;;;;10.18;8.10;;;9.50;99.90;;;;;;4899882;29;20265;-89
2022/09/28 00:34:54;;;;;;;13.57;7.78;;;9.50;99.90;;;;;;4884239;29;20180;-89
2022/09/28 00:37:20;;;;;;;11.00;8.38;;;9.40;99.90;;;;;;4884213;29;20199;-89
2022/09/28 00:39:47;;;;;;;9.02;7.63;;;9.40;99.90;;;;;;4884816;29;20191;-90
2022/09/28 00:42:22;;;;;;;11.20;8.13;;;9.40;99.90;;;;;;4899415;29;20211;-89
2022/09/28 00:44:56;;;;;;;14.45;8.45;;;9.40;99.90;;;;;;4899590;29;20274;-90
2022/09/28 00:47:52;;;;;;;9.98;8.50;;;9.30;99.90;;;;;;4899778;29;20192;-89
2022/09/28 00:50:26;;;;;;;9.45;7.88;;;9.30;99.90;;;;;;4899566;29;20180;-89
2022/09/28 00:53:02;;;;;;;10.07;8.40;;;9.20;99.90;;;;;;4899564;29;20314;-89
2022/09/28 00:55:43;;;;;;;10.98;7.22;;;9.20;99.90;;;;;;4900332;29;20175;-89
2022/09/28 00:58:13;;;;;;;9.00;8.02;;;9.20;99.90;;;;;;4899652;29;20622;-90
2022/09/28 01:00:39;;;;;;;9.80;7.85;;;9.10;99.90;;;;;;4899689;29;20248;-89
2022/09/28 01:03:06;;;;;;;10.57;8.05;;;9.10;99.90;;;;;;4915792;29;20186;-89
2022/09/28 01:05:33;;;;;;;9.75;7.90;;;9.10;99.90;;;;;;4919275;29;20215;-89
2022/09/28 01:08:01;;;;;;;8.15;6.72;;;9.10;99.90;;;;;;4902501;29;20672;-89
2022/09/28 01:10:29;;;;;;;9.35;7.60;;;9.00;99.90;;;;;;4919275;29;20175;-89
2022/09/28 01:12:56;;;;;;;9.18;7.20;;;9.10;99.90;;;;;;4884606;29;20299;-89
2022/09/28 01:15:25;;;;;;;9.60;7.65;;;9.00;99.90;;;;;;4883549;29;20175;-89
2022/09/28 01:17:59;;;;;;;8.32;7.20;;;9.00;99.90;;;;;;4883254;29;20183;-90
2022/09/28 01:20:33;;;;;;;8.45;6.93;;;9.00;99.90;;;;;;4883706;29;20276;-90
2022/09/28 01:23:26;;;;;;;9.63;7.25;;;9.00;99.90;;;;;;4883054;29;20184;-89
2022/09/28 01:26:03;;;;;;;9.68;7.50;;;8.90;99.90;;;;;;4883411;29;20183;-89
2022/09/28 01:28:30;;;;;;;11.00;7.25;;;8.90;99.90;;;;;;4883091;29;20622;-89
2022/09/28 01:31:09;;;;;;;9.18;7.20;;;8.90;99.90;;;;;;4883131;29;20627;-89
2022/09/28 01:33:43;;;;;;;9.30;7.10;;;8.80;99.90;;;;;;4882935;29;20223;-89
2022/09/28 01:36:42;;;;;;;8.38;6.65;;;8.80;99.90;;;;;;4883202;29;20213;-89
2022/09/28 01:39:16;;;;;;;6.90;6.10;;;8.80;99.90;;;;;;4882925;29;20198;-89
2022/09/28 01:41:45;;;;;;;8.30;5.93;;;8.70;99.90;;;;;;4883120;29;20174;-89
2022/09/28 01:44:16;;;;;;;8.50;5.75;;;8.70;99.90;;;;;;4883146;29;20275;-89
2022/09/28 01:46:48;;;;;;;6.97;5.60;;;8.70;99.90;;;;;;4883160;29;20178;-90
2022/09/28 01:49:25;;;;;;;7.35;5.75;;;8.60;99.90;;;;;;4883323;29;20184;-89
2022/09/28 01:51:54;;;;;;;7.00;5.40;;;8.70;99.90;;;;;;4882969;29;20214;-89
2022/09/28 01:54:26;;;;;;;6.13;5.50;;;8.60;99.90;;;;;;4882772;29;20183;-88
2022/09/28 01:57:14;;;;;;;6.33;5.43;;;8.70;99.90;;;;;;4899790;29;20168;-89
2022/09/28 01:59:59;;;;;;;6.57;4.78;;;8.60;99.90;;;;;;4882776;29;20175;-89
2022/09/28 02:02:31;;;;;;;6.85;5.40;;;8.60;99.90;;;;;;4882691;29;20191;-89
2022/09/28 02:05:05;;;;;;;7.53;5.30;;;8.50;99.90;;;;;;4882829;29;20171;-89
2022/09/28 02:07:39;;;;;;;6.65;5.85;;;8.50;99.90;;;;;;4883045;29;20191;-89
2022/09/28 02:10:28;;;;;;;8.03;6.30;;;8.40;99.90;;;;;;4899308;29;20175;-88
2022/09/28 02:12:56;;;;;;;8.02;5.85;;;8.40;99.90;;;;;;4881913;29;20307;-89
2022/09/28 02:15:34;;;;;;;7.93;6.27;;;8.30;99.90;;;;;;4882766;29;20184;-89
2022/09/28 02:17:59;;;;;;;9.47;6.50;;;8.20;99.90;;;;;;4882629;29;20183;-89
2022/09/28 02:20:28;;;;;;;10.40;6.60;;;8.30;99.90;;;;;;4882696;29;20240;-89
2022/09/28 02:22:56;;;;;;;7.13;6.03;;;8.30;99.90;;;;;;4882469;29;20214;-89
2022/09/28 02:25:41;;;;;;;7.07;5.73;;;8.30;99.90;;;;;;4882568;29;20171;-88
2022/09/28 02:28:10;;;;;;;8.33;5.90;;;8.20;99.90;;;;;;4882656;29;20179;-89
2022/09/28 02:30:38;;;;;;;9.10;6.63;;;8.10;99.90;;;;;;4882645;29;20184;-89
2022/09/28 02:33:22;;;;;;;6.57;5.80;;;8.00;99.90;;;;;;4882246;29;20222;-88
2022/09/28 02:35:48;;;;;;;8.40;5.40;;;7.90;99.90;;;;;;4883794;29;20218;-88
2022/09/28 02:38:14;;;;;;;7.40;5.60;;;7.80;99.90;;;;;;4886629;29;20237;-89
2022/09/28 02:40:49;;;;;;;9.47;5.53;;;7.80;99.90;;;;;;4886534;29;20227;-89
2022/09/28 02:43:25;;;;;;;8.40;5.93;;;7.90;99.90;;;;;;4886083;29;20221;-89
2022/09/28 02:46:15;;;;;;;8.07;6.03;;;7.70;99.90;;;;;;4886180;29;20187;-89
2022/09/28 02:49:19;;;;;;;6.70;5.37;;;7.60;99.90;;;;;;4886067;29;20598;-89
2022/09/28 02:52:04;;;;;;;6.63;5.60;;;7.50;99.90;;;;;;4874287;29;20321;-89
2022/09/28 02:54:36;;;;;;;8.63;5.60;;;7.70;99.90;;;;;;4885825;29;20179;-89
2022/09/28 02:57:16;;;;;;;6.93;5.77;;;7.70;99.90;;;;;;4885982;29;20267;-89
2022/09/28 02:59:55;;;;;;;6.37;5.13;;;7.80;99.90;;;;;;4901887;29;20185;-89
2022/09/28 03:02:38;;;;;;;7.53;5.30;;;7.90;99.90;;;;;;4885558;29;20199;-88
2022/09/28 03:05:09;;;;;;;6.37;5.20;;;8.00;99.90;;;;;;4885705;29;20180;-89
2022/09/28 03:08:08;;;;;;;5.97;5.33;;;8.00;99.90;;;;;;4885850;29;20648;-89
2022/09/28 03:10:42;;;;;;;9.83;5.33;;;8.00;99.90;;;;;;4885294;29;20199;-89
2022/09/28 03:13:10;;;;;;;12.47;5.30;;;7.90;99.90;;;;;;4904612;29;20269;-89
2022/09/28 03:15:37;;;;;;;8.00;5.60;;;8.00;99.90;;;;;;4904321;29;20528;-89
2022/09/28 03:18:03;;;;;;;7.18;5.63;;;8.00;99.90;;;;;;4904144;29;20528;-89
2022/09/28 03:20:32;;;;;;;6.07;5.28;;;8.10;99.90;;;;;;4904397;29;20189;-89
2022/09/28 03:22:59;;;;;;;5.77;5.03;;;8.10;99.90;;;;;;4904302;29;20201;-89
2022/09/28 03:25:24;;;;;;;8.03;5.70;;;8.00;99.90;;;;;;4904151;29;20194;-88
2022/09/28 03:27:50;;;;;;;7.97;5.22;;;8.00;99.90;;;;;;4904308;29;20183;-88
2022/09/28 03:30:16;;;;;;;7.63;5.20;;;8.10;99.90;;;;;;4904175;29;20186;-89
2022/09/28 03:32:41;;;;;;;8.53;4.87;;;8.10;99.90;;;;;;4903700;29;20218;-89
2022/09/28 03:35:08;;;;;;;7.43;5.63;;;8.10;99.90;;;;;;4904095;29;20217;-88
2022/09/28 03:37:35;;;;;;;5.63;5.00;;;8.10;99.90;;;;;;4903854;29;20531;-89
2022/09/28 03:40:00;;;;;;;9.25;4.80;;;8.10;99.90;;;;;;4903071;29;20183;-89
2022/09/28 03:42:26;;;;;;;6.30;4.60;;;8.20;99.90;;;;;;4904011;29;20186;-89
2022/09/28 03:44:52;;;;;;;5.00;4.43;;;8.20;99.90;;;;;;4903819;29;20206;-88
2022/09/28 03:47:18;;;;;;;7.68;4.50;;;8.30;99.90;;;;;;4903128;29;20187;-89
2022/09/28 03:49:45;;;;;;;6.03;4.30;;;8.40;99.90;;;;;;4903821;29;20178;-88
2022/09/28 03:52:11;;;;;;;5.05;4.40;;;8.30;99.90;;;;;;4903733;29;20385;-88
2022/09/28 03:54:37;;;;;;;5.32;4.03;;;8.40;99.90;;;;;;4903478;29;20261;-88
2022/09/28 03:57:03;;;;;;;4.88;4.40;;;8.40;99.90;;;;;;4919703;29;20342;-89
2022/09/28 03:59:29;;;;;;;6.72;4.45;;;8.30;99.90;;;;;;4903592;29;20540;-90
2022/09/28 04:01:55;;;;;;;7.88;4.13;;;8.30;99.90;;;;;;4919824;29;20182;-89
2022/09/28 04:04:21;;;;;;;6.97;4.00;;;8.40;99.90;;;;;;4903608;29;20201;-89
2022/09/28 04:06:47;;;;;;;7.47;4.10;;;8.30;99.90;;;;;;4903574;29;20618;-89
2022/09/28 04:09:13;;;;;;;5.97;4.15;;;8.30;99.90;;;;;;4903505;29;20528;-89
2022/09/28 04:11:39;;;;;;;4.80;3.80;;;8.30;99.90;;;;;;4902800;29;20258;-89
2022/09/28 04:14:04;;;;;;;4.93;4.43;;;8.30;99.90;;;;;;4903524;29;20183;-89
2022/09/28 04:16:30;;;;;;;4.78;4.22;;;8.30;99.90;;;;;;4903213;29;20183;-89
2022/09/28 04:18:57;;;;;;;6.07;4.07;;;8.30;99.90;;;;;;4903527;29;20602;-89
2022/09/28 04:21:23;;;;;;;5.97;4.60;;;8.20;99.90;;;;;;4903237;29;20193;-90
2022/09/28 04:23:49;;;;;;;6.37;4.40;;;8.30;99.90;;;;;;4903106;29;20221;-88
2022/09/28 04:26:23;;;;;;;6.63;4.43;;;8.30;99.90;;;;;;4903091;29;20202;-89
2022/09/28 04:31:46;;;;;;;4.90;4.17;;;8.20;99.90;;;;;;4919709;29;20202;-89
2022/09/28 04:34:16;;;;;;;4.63;4.10;;;8.20;99.90;;;;;;4902802;29;20586;-88
2022/09/28 04:36:43;;;;;;;5.53;4.23;;;8.20;99.90;;;;;;4920048;29;20167;-88
2022/09/28 04:39:13;;;;;;;6.53;5.13;;;8.20;99.90;;;;;;4902888;29;20245;-89
2022/09/28 04:41:39;;;;;;;7.93;5.33;;;8.20;99.90;;;;;;4902849;29;20238;-87
2022/09/28 04:44:05;;;;;;;10.90;5.13;;;8.20;99.90;;;;;;4902757;29;20258;-88
2022/09/28 04:46:31;;;;;;;8.57;5.07;;;8.20;99.90;;;;;;4902462;29;20618;-88
2022/09/28 04:48:57;;;;;;;6.33;5.43;;;8.20;99.90;;;;;;4902718;29;20265;-89
2022/09/28 04:51:23;;;;;;;6.73;5.70;;;8.20;99.90;;;;;;4902831;29;20623;-89
2022/09/28 04:53:48;;;;;;;6.03;5.13;;;8.20;99.90;;;;;;4902422;29;20277;-89
2022/09/28 04:56:16;;;;;;;8.03;4.83;;;8.20;99.90;;;;;;4902560;29;20230;-88
2022/09/28 04:58:42;;;;;;;6.77;4.87;;;8.20;99.90;;;;;;4902165;29;20179;-89
2022/09/28 05:01:13;;;;;;;9.50;5.37;;;8.30;99.90;;;;;;4902585;29;20254;-90
2022/09/28 05:03:38;;;;;;;8.85;5.18;;;8.30;99.90;;;;;;4902336;29;20251;-90
2022/09/28 05:06:08;;;;;;;5.43;4.43;;;8.30;99.90;;;;;;4902567;29;20618;-89
2022/09/28 05:08:34;;;;;;;7.57;5.70;;;8.30;99.90;;;;;;4919362;29;20159;-89
2022/09/28 05:11:02;;;;;;;7.80;4.80;;;8.30;99.90;;;;;;4893614;29;20219;-90
2022/09/28 05:13:29;;;;;;;9.15;5.57;;;8.30;99.90;;;;;;4883366;29;20532;-89
2022/09/28 05:15:57;;;;;;;8.10;5.40;;;8.40;99.90;;;;;;4883434;29;20179;-89
2022/09/28 05:18:23;;;;;;;5.80;5.13;;;8.40;99.90;;;;;;4900056;29;20203;-89
2022/09/28 05:20:49;;;;;;;9.10;4.25;;;8.40;99.90;;;;;;4883600;29;20183;-90
2022/09/28 05:23:16;;;;;;;7.82;5.00;;;8.40;99.90;;;;;;4883429;29;20509;-90
2022/09/28 05:25:44;;;;;;;6.03;5.03;;;8.40;99.90;;;;;;4885108;29;20191;-89
2022/09/28 05:28:10;;;;;;;6.33;4.93;;;8.40;99.90;;;;;;4901408;29;20209;-88
2022/09/28 05:30:36;;;;;;;5.23;4.73;;;8.40;99.90;;;;;;4902134;29;20599;-88
2022/09/28 05:33:03;;;;;;;11.70;4.67;;;8.40;99.90;;;;;;4917945;29;20265;-89
2022/09/28 05:35:29;;;;;;;5.90;4.60;;;8.50;99.90;;;;;;4901907;29;20190;-89
2022/09/28 05:37:55;;;;;;;7.03;4.97;;;8.40;99.90;;;;;;4902104;29;20217;-89
2022/09/28 05:40:20;;;;;;;6.80;5.60;;;8.50;99.90;;;;;;4901699;29;20251;-88
2022/09/28 05:42:46;;;;;;;6.03;5.30;;;8.50;99.90;;;;;;4901707;29;20730;-89
2022/09/28 05:45:12;;;;;;;6.93;5.28;;;8.50;99.90;;;;;;4901768;29;20610;-89
2022/09/28 05:47:42;;;;;;;6.33;5.30;;;8.50;99.90;;;;;;4918296;29;20179;-88
2022/09/28 05:50:10;;;;;;;8.13;5.25;;;8.60;99.90;;;;;;4906456;29;20187;-89
2022/09/28 05:52:37;;;;;;;7.68;5.22;;;8.60;99.90;;;;;;4882920;29;20250;-88
2022/09/28 05:55:05;;;;;;;8.35;5.47;;;8.60;99.90;;;;;;4882675;29;20265;-88
2022/09/28 05:57:30;;;;;;;6.70;5.50;;;8.50;99.90;;;;;;4882552;29;20179;-89
2022/09/28 05:59:56;;;;;;;8.07;5.20;;;8.60;99.90;;;;;;4882696;29;20320;-88
2022/09/28 06:02:22;;;;;;;6.68;5.63;;;8.60;99.90;;;;;;4882539;29;20190;-89
2022/09/28 06:04:49;;;;;;;9.95;5.80;;;8.60;99.90;;;;;;4882519;29;20637;-89
2022/09/28 06:07:19;;;;;;;8.40;6.72;;;8.60;99.90;;;;;;4882641;29;20175;-88
2022/09/28 06:09:45;;;;;;;7.25;6.05;;;8.60;99.90;;;;;;4881824;29;20190;-87
2022/09/28 06:12:11;;;;;;;7.95;6.03;;;8.60;99.90;;;;;;4887858;29;20251;-88
2022/09/28 06:14:37;;;;;;;9.25;6.22;;;8.70;99.90;;;;;;4882200;29;20255;-87
2022/09/28 06:17:03;;;;;;;6.88;5.82;;;8.70;99.90;;;;;;4898666;29;20171;-86
2022/09/28 06:19:29;;;;;;;6.63;5.55;;;8.70;99.90;;;;;;4898811;29;20507;-86
2022/09/28 06:21:55;;;;;;;8.85;6.03;;;8.70;99.90;;;;;;4882019;29;20179;-88
2022/09/28 06:24:21;;;;;;;6.90;5.68;;;8.80;99.90;;;;;;4881907;29;20186;-87
2022/09/28 06:26:46;;;;;;;6.40;5.68;;;8.70;99.90;;;;;;4881980;29;20225;-87
2022/09/28 06:29:17;;;;;;;5.82;5.22;;;8.80;99.90;;;;;;4882084;29;20194;-88
2022/09/28 06:31:44;;;;;;;8.43;6.15;;;8.70;99.90;;;;;;4881866;29;20211;-88
2022/09/28 06:34:11;;;;;;;7.53;5.55;;;8.80;99.90;;;;;;4882005;29;20198;-88
2022/09/28 06:36:37;;;;;;;9.25;6.75;;;8.80;99.90;;;;;;4881800;29;20187;-87
2022/09/28 06:39:03;;;;;;;7.07;5.13;;;8.80;99.90;;;;;;4882091;29;20175;-87
2022/09/28 06:41:29;;;;;;;9.88;5.93;;;8.80;99.90;;;;;;4880619;29;20187;-86
2022/09/28 06:43:55;;;;;;;7.50;5.63;;;8.80;99.90;;;;;;4880044;29;20270;-86
2022/09/28 06:46:21;;;;;;;8.50;5.47;;;8.80;99.90;;;;;;4873900;29;20198;-88
2022/09/28 06:48:48;;;;;;;6.45;5.40;;;8.80;99.90;;;;;;4894597;29;20187;-87
2022/09/28 06:51:14;;;;;;;6.80;5.33;;;8.90;99.90;;;;;;4870876;29;20219;-87
2022/09/28 06:53:40;;;;;;;8.33;5.53;;;8.90;99.90;;;;;;4879309;29;20195;-88
2022/09/28 06:56:10;;;;;;;5.53;5.00;;;8.90;99.90;;;;;;4880901;29;20187;-88
2022/09/28 06:58:36;;;;;;;7.68;5.82;;;8.90;99.90;;;;;;4881197;29;20175;-87
2022/09/28 07:01:02;;;;;;;6.80;5.32;;;8.90;99.90;;;;;;4881313;29;20180;-87
2022/09/28 07:03:28;;;;;;;8.43;5.65;;;8.90;99.90;;;;;;4879436;29;20207;-87
2022/09/28 07:05:55;;;;;;;8.32;5.35;;;8.90;99.90;;;;;;4869363;29;20588;-88
2022/09/28 07:08:27;;;;;;;9.45;5.72;;;8.90;99.90;;;;;;4881108;29;20199;-89
2022/09/28 07:10:56;;;;;;;7.00;5.47;;;9.00;99.90;;;;;;4891843;29;20180;-87
2022/09/28 07:13:30;;;;;;;8.90;5.15;;;9.00;99.90;;;;;;4899582;29;20619;-87
2022/09/28 07:16:00;;;;;;;9.65;5.10;;;9.00;99.90;;;;;;4891328;29;20182;-87
2022/09/28 07:18:28;;;;;;;5.45;4.90;;;9.00;99.90;;;;;;4893494;29;20178;-87
2022/09/28 07:20:57;;;;;;;5.57;4.60;;;9.00;99.90;;;;;;4884734;29;20189;-87
2022/09/28 07:23:26;;;;;;;4.75;4.25;;;9.00;99.90;;;;;;4903841;29;20277;-88
2022/09/28 07:25:52;;;;;;;5.78;4.40;;;9.00;99.90;;;;;;4895544;29;20180;-87
2022/09/28 07:28:19;;;;;;;6.10;4.68;;;9.00;99.90;;;;;;4887200;29;20698;-88
2022/09/28 07:30:45;;;;;;;8.30;4.90;;;9.00;99.90;;;;;;4892317;29;20179;-88
2022/09/28 07:33:13;;;;;;;6.00;4.40;;;9.00;99.90;;;;;;4892945;29;20215;-87
2022/09/28 07:35:41;;;;;;;5.85;4.90;;;9.00;99.90;;;;;;4899083;29;20182;-89
2022/09/28 07:38:08;;;;;;;5.82;4.18;;;9.10;99.90;;;;;;4888379;29;20183;-88
2022/09/28 07:43:21;;;;;;;7.55;4.40;;;9.10;99.90;;;;;;4911834;29;20226;-90
2022/09/28 07:45:48;;;;;;;6.97;4.78;;;9.20;99.90;;;;;;4900857;29;20236;-90
2022/09/28 07:48:16;;;;;;;4.70;3.83;;;9.20;99.90;;;;;;4897097;29;20193;-89
2022/09/28 07:50:46;;;;;;;5.93;4.30;;;9.20;99.90;;;;;;4903514;29;20175;-90
2022/09/28 07:53:12;;;;;;;5.90;3.92;;;9.30;99.90;;;;;;4897330;29;20304;-92
2022/09/28 07:55:37;;;;;;;7.90;4.32;;;9.30;99.90;;;;;;4902707;29;20606;-90
2022/09/28 07:58:03;;;;;;;8.48;4.53;;;9.30;99.90;;;;;;4901354;29;20190;-90
2022/09/28 08:00:31;;;;;;;4.78;3.67;;;9.40;99.90;;;;;;4901651;29;20174;-90
2022/09/28 08:03:01;;;;;;;5.05;3.83;;;9.40;99.90;;;;;;4901897;29;20187;-90
2022/09/28 08:05:30;;;;;;;4.40;3.15;;;9.50;99.90;;;;;;4902924;29;20215;-91
2022/09/28 08:07:57;;;;;;;6.53;2.75;;;9.50;99.90;;;;;;4899901;29;20215;-92
2022/09/28 08:10:25;;;;;;;3.83;2.72;;;9.60;99.90;;;;;;4899915;29;20205;-88
2022/09/28 08:13:02;;;;;;;3.90;2.78;;;9.60;99.90;;;;;;4893683;29;20315;-88
2022/09/28 08:15:32;;;;;;;3.35;2.30;;;9.60;99.90;;;;;;4908657;29;20617;-89
2022/09/28 08:17:58;;;;;;;6.85;2.30;;;9.70;99.90;;;;;;4902277;29;20182;-89
2022/09/28 08:23:25;;;;;;;3.15;1.55;;;9.90;99.90;;;;;;4848519;29;20548;-89
2022/09/28 08:25:52;;;;;;;2.10;1.40;;;10.00;99.90;;;;;;4875857;29;20223;-87
2022/09/28 08:28:19;;;;;;;2.20;2.00;;;10.00;99.90;;;;;;4883732;29;20589;-89
2022/09/28 08:30:45;;;;;;;2.65;1.85;;;10.10;99.90;;;;;;4884527;29;20624;-88
2022/09/28 08:33:12;;;;;;;2.05;1.83;;;10.10;99.90;;;;;;4883234;29;20226;-88
2022/09/28 08:35:39;;;;;;;2.38;1.50;;;10.20;99.90;;;;;;4884289;29;20180;-88
2022/09/28 08:38:05;;;;;;;2.13;1.33;;;10.20;99.90;;;;;;4883269;29;20532;-86
2022/09/28 08:40:38;;;;;;;2.45;1.20;;;10.20;99.90;;;;;;4900114;29;20176;-86
2022/09/28 08:43:33;;;;;;;1.52;1.05;;;10.20;99.90;;;;;;4881032;29;20222;-88
2022/09/28 08:46:00;;;;;;;1.50;1.10;;;10.20;99.90;;;;;;4886819;29;20199;-86
2022/09/28 08:48:47;;;;;;;1.45;1.02;;;10.20;99.90;;;;;;4883632;29;20186;-87
2022/09/28 08:51:18;;;;;;;1.20;0.93;;;10.10;99.90;;;;;;4883855;29;20191;-86
2022/09/28 08:53:56;;;;;;;1.38;1.00;;;10.10;99.90;;;;;;4893003;29;20188;-86
2022/09/28 08:57:11;;;;;;;3.08;1.15;;;10.10;99.90;;;;;;4867905;29;20192;-87
2022/09/28 08:59:48;;;;;;;2.28;1.20;;;10.10;99.90;;;;;;4816376;29;20209;-87
2022/09/28 09:02:33;;;;;;;1.65;1.10;;;10.10;99.90;;;;;;4823976;29;20181;-87
2022/09/28 09:05:04;;;;;;;1.27;0.88;;;10.10;99.90;;;;;;4866038;29;20551;-87
2022/09/28 09:07:39;;;;;;;2.08;1.20;;;10.10;99.90;;;;;;4880458;29;20184;-87
2022/09/28 09:10:14;;;;;;;1.83;0.90;;;10.10;99.90;;;;;;4868086;29;20183;-86
2022/09/28 09:13:00;;;;;;;1.17;0.90;;;10.10;99.90;;;;;;4883137;29;20654;-85
2022/09/28 09:15:37;;;;;;;2.00;1.08;;;10.20;99.90;;;;;;4886618;29;20264;-85
2022/09/28 09:18:26;;;;;;;1.40;1.00;;;10.10;99.90;;;;;;4883452;29;20270;-86
2022/09/28 09:20:56;;;;;;;0.90;0.80;;;10.20;99.90;;;;;;4883484;29;20214;-87
2022/09/28 09:23:42;;;;;;;1.25;0.73;;;10.20;99.90;;;;;;4883264;29;20194;-87
2022/09/28 09:26:31;;;;;;;1.55;0.70;;;10.20;99.90;;;;;;4883051;29;20217;-87
2022/09/28 09:29:08;;;;;;;1.55;0.70;;;10.30;99.90;;;;;;4883379;29;20218;-87
2022/09/28 09:31:45;;;;;;;0.90;0.55;;;10.30;99.90;;;;;;4883131;29;20306;-87
2022/09/28 09:34:21;;;;;;;1.00;0.73;;;10.30;99.90;;;;;;4899832;29;20178;-86
2022/09/28 09:37:15;;;;;;;0.63;0.55;;;10.30;99.90;;;;;;4883185;29;20171;-86
2022/09/28 09:39:50;;;;;;;0.55;0.50;;;10.40;99.90;;;;;;4882223;29;20610;-87
2022/09/28 09:42:25;;;;;;;1.15;0.70;;;10.50;99.90;;;;;;4882464;29;20222;-85
2022/09/28 09:45:15;;;;;;;1.48;0.70;;;10.50;99.90;;;;;;4882370;29;20213;-85
2022/09/28 09:47:59;;;;;;;1.02;0.70;;;10.50;99.90;;;;;;4882734;29;20175;-86
2022/09/28 09:50:50;;;;;;;0.88;0.55;;;10.60;99.90;;;;;;4882652;29;20203;-86
2022/09/28 09:53:25;;;;;;;1.20;0.75;;;10.60;99.90;;;;;;4882650;29;20233;-87
2022/09/28 09:56:19;;;;;;;1.73;0.63;;;10.60;99.90;;;;;;4882705;29;20171;-87
2022/09/28 09:58:50;;;;;;;1.23;0.57;;;10.60;99.90;;;;;;4882714;29;20262;-87
2022/09/28 10:01:19;;;;;;;1.40;0.60;;;10.60;99.90;;;;;;4882587;29;20175;-86
2022/09/28 10:03:47;;;;;;;0.50;0.50;;;10.60;99.90;;;;;;4882461;29;20184;-86
2022/09/28 10:06:32;;;;;;;1.98;0.85;;;10.60;99.90;;;;;;4882319;29;20179;-85
2022/09/28 10:09:01;;;;;;;2.38;0.90;;;10.70;99.90;;;;;;4882779;29;20186;-86
2022/09/28 10:11:31;;;;;;;3.40;0.90;;;10.60;99.90;;;;;;4881914;29;20243;-87
2022/09/28 10:13:57;;;;;;;0.95;0.73;;;10.70;99.90;;;;;;4882469;29;20175;-86
2022/09/28 10:16:23;;;;;;;1.35;0.93;;;10.80;99.90;;;;;;4882442;29;20546;-86
2022/09/28 10:18:49;;;;;;;0.88;0.70;;;10.80;99.90;;;;;;4899285;29;20254;-87
2022/09/28 10:21:19;;;;;;;1.42;0.80;;;10.80;99.90;;;;;;4882449;29;20517;-86
2022/09/28 10:23:47;;;;;;;2.33;0.90;;;10.80;99.90;;;;;;4882410;29;20278;-87
2022/09/28 10:26:21;;;;;;;0.85;0.70;;;10.70;99.90;;;;;;4882226;29;20184;-86
2022/09/28 10:28:52;;;;;;;0.57;0.57;;;10.70;99.90;;;;;;4899115;29;20167;-86
2022/09/28 10:31:40;;;;;;;1.38;0.70;;;10.70;99.90;;;;;;4882208;29;20182;-87
2022/09/28 10:34:12;;;;;;;1.35;0.70;;;10.70;99.90;;;;;;4882093;29;20261;-86
2022/09/28 10:36:50;;;;;;;1.55;0.70;;;10.80;99.90;;;;;;4898968;29;20168;-86
2022/09/28 10:39:31;;;;;;;1.08;0.70;;;10.80;99.90;;;;;;4882174;29;20222;-86
2022/09/28 10:42:02;;;;;;;0.88;0.63;;;10.80;99.90;;;;;;4898722;29;20190;-87
2022/09/28 10:44:34;;;;;;;0.50;0.50;;;10.90;99.90;;;;;;4882259;29;20666;-86
2022/09/28 10:47:08;;;;;;;2.53;0.70;;;10.90;99.90;;;;;;4881955;29;20207;-86
2022/09/28 10:49:44;;;;;;;2.40;0.77;;;10.90;99.90;;;;;;4881440;29;20182;-85
2022/09/28 10:52:35;;;;;;;0.95;0.60;;;10.90;99.90;;;;;;4881410;29;20547;-86
2022/09/28 10:55:22;;;;;;;0.75;0.55;;;10.80;99.90;;;;;;4897124;29;20191;-86
2022/09/28 10:57:49;;;;;;;1.27;0.90;;;10.80;99.90;;;;;;4875166;29;20183;-85
2022/09/28 11:00:39;;;;;;;0.65;0.57;;;10.80;99.90;;;;;;4885325;29;20191;-86
2022/09/28 11:03:16;;;;;;;0.85;0.60;;;10.70;99.90;;;;;;4877408;29;20198;-87
2022/09/28 11:05:51;;;;;;;0.65;0.40;;;10.80;99.90;;;;;;4885569;29;20324;-86
2022/09/28 11:08:25;;;;;;;0.47;0.45;;;10.70;99.90;;;;;;4902798;29;20166;-88
2022/09/28 11:11:07;;;;;;;0.40;0.40;;;10.70;99.90;;;;;;4886823;29;20197;-88
2022/09/28 11:13:46;;;;;;;0.85;0.50;;;10.70;99.90;;;;;;4904763;29;20716;-88
2022/09/28 11:16:24;;;;;;;0.70;0.50;;;10.70;99.90;;;;;;4904143;29;20198;-86
2022/09/28 11:18:50;;;;;;;0.80;0.50;;;10.60;99.90;;;;;;4903861;29;20206;-86
2022/09/28 11:21:21;;;;;;;0.50;0.50;;;10.60;99.90;;;;;;4904180;29;20214;-87
2022/09/28 11:24:06;;;;;;;1.15;0.63;;;10.60;99.90;;;;;;4903897;29;20277;-85
2022/09/28 11:26:39;;;;;;;1.67;0.40;;;10.60;99.90;;;;;;4919199;29;20256;-87
2022/09/28 11:29:16;;;;;;;1.08;0.40;;;10.60;99.90;;;;;;4904363;29;20190;-88
2022/09/28 11:31:42;;;;;;;1.40;0.70;;;10.60;99.90;;;;;;4921003;29;20257;-88
2022/09/28 11:34:35;;;;;;;1.30;0.50;;;10.60;99.90;;;;;;4904292;29;20229;-88
2022/09/28 11:37:10;;;;;;;1.50;0.55;;;10.60;99.90;;;;;;4895685;29;20264;-87
2022/09/28 11:40:14;;;;;;;0.40;0.40;;;10.50;99.90;;;;;;4885345;29;20183;-87
2022/09/28 11:43:16;;;;;;;0.70;0.40;;;10.50;99.90;;;;;;4900741;29;20198;-87
2022/09/28 11:45:58;;;;;;;0.63;0.50;;;10.40;99.90;;;;;;4901045;29;20190;-87
2022/09/28 11:48:31;;;;;;;1.13;0.50;;;10.30;99.90;;;;;;4904123;29;20193;-88
2022/09/28 11:51:02;;;;;;;0.55;0.47;;;10.40;99.90;;;;;;4920425;29;20249;-88
2022/09/28 11:53:31;;;;;;;0.50;0.40;;;10.30;99.90;;;;;;4903535;29;20208;-88
2022/09/28 11:56:11;;;;;;;1.65;0.50;;;10.30;99.90;;;;;;4903724;29;20282;-88
2022/09/28 11:58:47;;;;;;;0.45;0.43;;;10.30;99.90;;;;;;4903888;29;20260;-88
2022/09/28 12:01:42;;;;;;;2.58;0.70;;;10.20;99.90;;;;;;4903653;29;20178;-86
2022/09/28 12:04:22;;;;;;;0.77;0.65;;;10.20;99.90;;;;;;4903177;29;20187;-87
2022/09/28 12:06:58;;;;;;;0.95;0.70;;;10.20;99.90;;;;;;4903366;29;20277;-86
2022/09/28 12:09:53;;;;;;;1.25;0.60;;;10.30;99.90;;;;;;4903506;29;20265;-86
2022/09/28 12:12:57;;;;;;;1.38;0.60;;;10.30;99.90;;;;;;4870642;29;20239;-87
2022/09/28 12:15:27;;;;;;;1.52;0.80;;;10.30;99.90;;;;;;4865927;29;20226;-86
2022/09/28 12:18:01;;;;;;;8.48;0.75;;;10.30;99.90;;;;;;4882566;29;20176;-86
2022/09/28 12:20:37;;;;;;;1.85;0.63;;;10.30;99.90;;;;;;4865647;29;20179;-85
2022/09/28 12:23:25;;;;;;;1.10;0.57;;;10.40;99.90;;;;;;4865631;29;20180;-86
2022/09/28 12:26:20;;;;;;;2.45;0.60;;;10.40;99.90;;;;;;4865649;29;20176;-86
2022/09/28 12:28:55;;;;;;;1.88;0.57;;;10.40;99.90;;;;;;4856348;29;20534;-86
2022/09/28 12:31:38;;;;;;;0.65;0.40;;;10.50;99.90;;;;;;4865537;29;20210;-86
2022/09/28 12:34:04;;;;;;;1.30;0.40;;;10.50;99.90;;;;;;4865589;29;20524;-87
2022/09/28 12:36:51;;;;;;;0.73;0.60;;;10.60;99.90;;;;;;4865759;29;20180;-88
2022/09/28 12:39:47;;;;;;;1.10;0.70;;;10.60;99.90;;;;;;4865611;29;20180;-88
2022/09/28 12:42:19;;;;;;;3.88;0.70;;;10.70;99.90;;;;;;4880548;29;20175;-86
2022/09/28 12:45:10;;;;;;;0.98;0.52;;;10.70;99.90;;;;;;4883886;29;20179;-86
2022/09/28 12:47:50;;;;;;;2.13;0.63;;;10.70;99.90;;;;;;4883817;29;20274;-87
2022/09/28 12:50:36;;;;;;;0.50;0.50;;;10.70;99.90;;;;;;4883537;29;20187;-84
2022/09/28 12:53:28;;;;;;;4.30;0.80;;;10.70;99.90;;;;;;4899126;29;20214;-86
2022/09/28 12:56:07;;;;;;;1.60;0.57;;;10.70;99.90;;;;;;4883480;29;20176;-86
2022/09/28 12:58:39;;;;;;;3.72;0.60;;;10.70;99.90;;;;;;4883699;29;20175;-87
2022/09/28 13:01:43;;;;;;;0.50;0.50;;;10.70;99.90;;;;;;4899342;29;20611;-87
2022/09/28 13:04:28;;;;;;;0.60;0.50;;;10.70;99.90;;;;;;4899321;29;20686;-87
2022/09/28 13:07:03;;;;;;;1.45;0.50;;;10.70;99.90;;;;;;4899228;29;20269;-87
2022/09/28 13:09:56;;;;;;;0.93;0.50;;;10.70;99.90;;;;;;4898943;29;20222;-86
2022/09/28 13:12:37;;;;;;;1.00;0.50;;;10.60;99.90;;;;;;4886836;29;20239;-88
2022/09/28 13:15:14;;;;;;;1.00;0.77;;;10.60;99.90;;;;;;4883541;29;20203;-86
2022/09/28 13:17:45;;;;;;;1.83;0.70;;;10.60;99.90;;;;;;4883488;29;20183;-86
2022/09/28 13:20:23;;;;;;;0.65;0.60;;;10.60;99.90;;;;;;4882719;29;20175;-86
2022/09/28 13:23:15;;;;;;;0.90;0.70;;;10.60;99.90;;;;;;4883032;29;20187;-86
2022/09/28 13:26:12;;;;;;;2.55;0.73;;;10.50;99.90;;;;;;4882598;29;20184;-88
2022/09/28 13:28:39;;;;;;;1.00;0.80;;;10.50;99.90;;;;;;4887413;29;20191;-86
2022/09/28 13:31:07;;;;;;;2.38;1.00;;;10.50;99.90;;;;;;4882897;29;20209;-85
2022/09/28 13:33:37;;;;;;;1.60;1.10;;;10.50;99.90;;;;;;4882588;29;20202;-86